createdAt,value
2022-11-30T00:01:14.056Z,111.57
2022-11-30T00:03:41.137Z,111.00
2022-11-30T00:06:10.251Z,111.00
2022-11-30T00:08:37.109Z,111.29
2022-11-30T00:11:15.238Z,111.26
2022-11-30T00:13:42.494Z,111.52
2022-11-30T00:16:09.911Z,111.48
2022-11-30T00:18:37.394Z,111.50
2022-11-30T00:21:08.714Z,111.80
2022-11-30T00:23:37.519Z,111.70
2022-11-30T00:26:07.341Z,111.92
2022-11-30T00:28:35.151Z,111.58
2022-11-30T00:31:04.072Z,111.64
2022-11-30T00:33:33.990Z,111.54
2022-11-30T00:36:02.718Z,111.62
2022-11-30T00:38:31.231Z,111.88
2022-11-30T00:40:57.989Z,111.62
2022-11-30T00:43:24.706Z,111.42
2022-11-30T00:45:51.406Z,111.57
2022-11-30T00:48:18.588Z,111.65
2022-11-30T00:50:45.385Z,111.78
2022-11-30T00:53:12.207Z,111.35
2022-11-30T00:55:38.921Z,111.13
2022-11-30T00:58:07.393Z,111.40
2022-11-30T01:00:34.273Z,111.38
2022-11-30T01:03:01.031Z,111.59
2022-11-30T01:05:27.748Z,112.04
2022-11-30T01:07:54.464Z,112.18
2022-11-30T01:10:23.077Z,112.04
2022-11-30T01:12:49.798Z,111.65
2022-11-30T01:15:16.753Z,112.00
2022-11-30T01:17:43.608Z,112.00
2022-11-30T01:20:11.035Z,112.55
2022-11-30T01:22:37.889Z,112.02
2022-11-30T01:25:04.982Z,112.20
2022-11-30T01:27:31.667Z,112.55
2022-11-30T01:29:58.529Z,112.15
2022-11-30T01:32:25.406Z,112.38
2022-11-30T01:34:52.267Z,112.24
2022-11-30T01:37:18.997Z,112.18
2022-11-30T01:39:45.942Z,112.09
2022-11-30T01:42:19.155Z,111.76
2022-11-30T01:45:00.120Z,111.82
2022-11-30T01:47:39.701Z,112.39
2022-11-30T01:50:11.180Z,111.99
2022-11-30T01:52:43.495Z,112.39
2022-11-30T01:55:15.938Z,112.68
2022-11-30T01:57:48.057Z,112.45
2022-11-30T02:00:16.311Z,112.08
2022-11-30T02:03:09.098Z,112.29
2022-11-30T02:05:37.748Z,112.63
2022-11-30T02:08:06.441Z,112.79
2022-11-30T02:10:37.083Z,112.84
2022-11-30T02:13:15.744Z,112.74
2022-11-30T02:15:57.867Z,112.84
2022-11-30T02:18:34.933Z,112.84
2022-11-30T02:21:12.051Z,113.03
2022-11-30T02:24:03.530Z,112.74
2022-11-30T02:26:30.279Z,112.31
2022-11-30T02:29:34.915Z,112.36
2022-11-30T02:32:24.669Z,112.61
2022-11-30T02:34:52.894Z,112.84
2022-11-30T02:37:21.594Z,113.05
2022-11-30T02:39:48.496Z,112.61
2022-11-30T02:42:15.989Z,112.90
2022-11-30T02:44:50.162Z,113.24
2022-11-30T02:47:39.182Z,113.35
2022-11-30T02:50:16.704Z,113.16
2022-11-30T02:52:44.665Z,112.77
2022-11-30T02:55:17.457Z,113.28
2022-11-30T02:57:44.323Z,113.54
2022-11-30T03:00:12.567Z,113.22
2022-11-30T03:02:40.454Z,113.32
2022-11-30T03:05:08.547Z,113.24
2022-11-30T03:07:35.624Z,113.24
2022-11-30T03:10:03.269Z,113.54
2022-11-30T03:12:30.128Z,113.87
2022-11-30T03:14:56.861Z,113.75
2022-11-30T03:17:23.854Z,113.74
2022-11-30T03:19:50.558Z,113.84
2022-11-30T03:22:17.316Z,114.26
2022-11-30T03:24:44.206Z,114.01
2022-11-30T03:27:11.528Z,114.18
2022-11-30T03:29:39.314Z,114.50
2022-11-30T03:32:06.248Z,114.32
2022-11-30T03:34:33.501Z,114.51
2022-11-30T03:37:00.425Z,114.35
2022-11-30T03:39:27.390Z,114.44
2022-11-30T03:41:54.196Z,114.54
2022-11-30T03:44:21.486Z,114.44
2022-11-30T03:46:48.211Z,114.58
2022-11-30T03:49:14.969Z,114.29
2022-11-30T03:51:41.802Z,114.12
2022-11-30T03:54:08.501Z,114.22
2022-11-30T03:56:35.119Z,114.62
2022-11-30T03:59:01.853Z,114.76
2022-11-30T04:01:28.803Z,114.39
2022-11-30T04:03:55.599Z,114.33
2022-11-30T04:06:22.616Z,114.45
2022-11-30T04:08:49.687Z,114.06
2022-11-30T04:11:16.569Z,113.83
2022-11-30T04:13:44.093Z,114.38
2022-11-30T04:16:11.418Z,114.39
2022-11-30T04:18:39.054Z,114.77
2022-11-30T04:21:06.786Z,114.26
2022-11-30T04:23:36.258Z,114.14
2022-11-30T04:26:08.546Z,114.24
2022-11-30T04:28:35.808Z,114.57
2022-11-30T04:31:03.074Z,114.27
2022-11-30T04:33:30.574Z,113.96
2022-11-30T04:36:03.104Z,113.48
2022-11-30T04:38:30.623Z,113.35
2022-11-30T04:40:57.302Z,113.58
2022-11-30T04:43:24.274Z,114.21
2022-11-30T04:45:51.293Z,113.72
2022-11-30T04:48:18.815Z,113.58
2022-11-30T04:50:45.543Z,113.49
2022-11-30T04:53:12.387Z,114.29
2022-11-30T04:55:39.207Z,113.75
2022-11-30T04:58:06.893Z,113.35
2022-11-30T05:00:34.089Z,113.38
2022-11-30T05:03:00.926Z,113.26
2022-11-30T05:05:27.767Z,113.01
2022-11-30T05:07:59.469Z,112.80
2022-11-30T05:10:27.834Z,112.99
2022-11-30T05:12:56.294Z,113.16
2022-11-30T05:15:23.023Z,113.35
2022-11-30T05:17:49.803Z,113.19
2022-11-30T05:20:16.554Z,113.29
2022-11-30T05:22:43.365Z,113.35
2022-11-30T05:25:10.501Z,113.35
2022-11-30T05:27:37.553Z,113.58
2022-11-30T05:30:05.636Z,113.25
2022-11-30T05:32:32.604Z,113.87
2022-11-30T05:34:59.539Z,113.44
2022-11-30T05:37:26.452Z,113.37
2022-11-30T05:39:53.058Z,114.03
2022-11-30T05:42:19.844Z,114.11
2022-11-30T05:44:48.280Z,113.76
2022-11-30T05:47:15.431Z,113.83
2022-11-30T05:49:42.196Z,114.11
2022-11-30T05:52:08.968Z,114.38
2022-11-30T05:54:35.704Z,114.81
2022-11-30T05:57:02.575Z,114.05
2022-11-30T05:59:29.218Z,114.45
2022-11-30T06:01:56.040Z,114.34
2022-11-30T06:04:22.981Z,113.92
2022-11-30T06:06:50.978Z,113.90
2022-11-30T06:09:17.738Z,113.93
2022-11-30T06:11:44.476Z,113.68
2022-11-30T06:14:11.280Z,114.34
2022-11-30T06:16:39.660Z,114.38
2022-11-30T06:19:06.482Z,114.16
2022-11-30T06:21:33.378Z,113.92
2022-11-30T06:24:00.147Z,113.70
2022-11-30T06:26:26.892Z,114.30
2022-11-30T06:28:53.560Z,113.69
2022-11-30T06:31:20.496Z,113.67
2022-11-30T06:33:47.195Z,113.84
2022-11-30T06:36:13.945Z,114.06
2022-11-30T06:38:40.705Z,114.28
2022-11-30T06:41:09.893Z,114.05
2022-11-30T06:43:38.167Z,113.92
2022-11-30T06:46:06.895Z,113.99
2022-11-30T06:48:34.981Z,113.61
2022-11-30T06:51:04.498Z,113.83
2022-11-30T06:53:31.956Z,114.19
2022-11-30T06:55:58.596Z,114.44
2022-11-30T06:58:25.288Z,114.44
2022-11-30T07:00:52.182Z,114.70
2022-11-30T07:03:18.879Z,114.96
2022-11-30T07:05:46.368Z,114.99
2022-11-30T07:08:14.729Z,114.61
2022-11-30T07:10:42.794Z,114.78
2022-11-30T07:13:13.739Z,114.73
2022-11-30T07:15:41.752Z,115.04
2022-11-30T07:18:08.973Z,115.06
2022-11-30T07:20:36.825Z,115.06
2022-11-30T07:23:27.216Z,115.20
2022-11-30T07:26:09.593Z,115.28
2022-11-30T07:28:46.708Z,115.58
2022-11-30T07:31:25.114Z,115.55
2022-11-30T07:33:52.174Z,115.70
2022-11-30T07:36:20.696Z,115.86
2022-11-30T07:38:47.904Z,115.64
2022-11-30T07:41:14.682Z,115.35
2022-11-30T07:43:41.547Z,115.24
2022-11-30T07:46:11.416Z,115.43
2022-11-30T07:48:38.289Z,115.48
2022-11-30T07:51:27.141Z,114.79
2022-11-30T07:53:59.374Z,115.56
2022-11-30T07:56:27.200Z,115.30
2022-11-30T07:58:56.368Z,115.00
2022-11-30T08:01:25.475Z,114.77
2022-11-30T08:03:53.247Z,114.92
2022-11-30T08:06:22.403Z,114.87
2022-11-30T08:08:51.533Z,115.19
2022-11-30T08:11:20.429Z,114.81
2022-11-30T08:13:47.497Z,114.69
2022-11-30T08:16:22.563Z,114.50
2022-11-30T08:18:49.933Z,116.78
2022-11-30T08:21:19.341Z,114.16
2022-11-30T08:23:49.426Z,114.34
2022-11-30T08:26:29.581Z,114.56
2022-11-30T08:28:57.639Z,114.48
2022-11-30T08:31:30.335Z,114.80
2022-11-30T08:34:02.076Z,114.41
2022-11-30T08:36:29.578Z,114.31
2022-11-30T08:39:00.800Z,114.67
2022-11-30T08:41:27.844Z,114.73
2022-11-30T08:43:54.933Z,114.57
2022-11-30T08:49:26.330Z,115.29
2022-11-30T08:54:47.451Z,115.38
2022-11-30T08:57:17.482Z,115.77
2022-11-30T08:59:44.788Z,116.40
2022-11-30T09:02:14.035Z,116.52
2022-11-30T09:04:40.887Z,116.28
2022-11-30T09:07:09.545Z,116.49
2022-11-30T09:09:36.962Z,117.12
2022-11-30T09:12:03.938Z,117.00
2022-11-30T09:14:30.733Z,116.97
2022-11-30T09:16:57.501Z,117.61
2022-11-30T09:19:25.204Z,117.99
2022-11-30T09:21:52.657Z,117.74
2022-11-30T09:24:20.815Z,117.63
2022-11-30T09:26:48.705Z,117.58
2022-11-30T09:29:15.429Z,117.57
2022-11-30T09:31:42.287Z,117.41
2022-11-30T09:34:11.176Z,117.41
2022-11-30T09:36:37.942Z,118.34
2022-11-30T09:39:04.598Z,117.25
2022-11-30T09:41:34.296Z,117.42
2022-11-30T09:44:19.302Z,117.56
2022-11-30T09:47:02.709Z,117.52
2022-11-30T09:49:40.899Z,117.07
2022-11-30T09:52:12.622Z,117.31
2022-11-30T09:54:42.197Z,117.21
2022-11-30T09:57:52.545Z,117.46
2022-11-30T10:00:21.975Z,117.58
2022-11-30T10:02:50.867Z,117.60
2022-11-30T10:05:22.712Z,117.25
2022-11-30T10:08:12.821Z,116.85
2022-11-30T10:10:43.213Z,117.00
2022-11-30T10:13:19.511Z,117.41
2022-11-30T10:16:04.116Z,117.39
2022-11-30T10:18:45.895Z,117.34
2022-11-30T10:21:46.292Z,117.34
2022-11-30T10:25:00.984Z,117.25
2022-11-30T10:28:24.036Z,117.37
2022-11-30T10:30:50.205Z,116.91
2022-11-30T10:33:20.006Z,116.64
2022-11-30T10:35:50.922Z,116.18
2022-11-30T10:38:31.826Z,116.62
2022-11-30T10:41:13.684Z,116.92
2022-11-30T10:43:55.091Z,116.06
2022-11-30T10:46:34.297Z,115.64
2022-11-30T10:49:16.656Z,115.95
2022-11-30T10:51:47.436Z,115.89
2022-11-30T10:54:16.937Z,115.62
2022-11-30T10:56:43.822Z,115.69
2022-11-30T10:59:46.318Z,115.48
2022-11-30T11:02:42.642Z,115.80
2022-11-30T11:05:15.088Z,115.72
2022-11-30T11:08:06.846Z,115.70
2022-11-30T11:10:40.208Z,115.57
2022-11-30T11:13:35.993Z,115.59
2022-11-30T11:16:04.643Z,115.40
2022-11-30T11:18:33.329Z,115.14
2022-11-30T11:21:16.509Z,115.08
2022-11-30T11:23:44.638Z,115.53
2022-11-30T11:26:22.469Z,115.61
2022-11-30T11:28:52.362Z,115.45
2022-11-30T11:31:42.233Z,115.24
2022-11-30T11:34:25.440Z,115.67
2022-11-30T11:37:26.436Z,116.38
2022-11-30T11:40:08.164Z,115.70
2022-11-30T11:42:54.620Z,115.32
2022-11-30T11:45:37.006Z,115.09
2022-11-30T11:48:30.720Z,115.38
2022-11-30T11:51:08.035Z,115.28
2022-11-30T11:53:47.353Z,114.92
2022-11-30T11:56:20.983Z,114.72
2022-11-30T11:58:52.431Z,114.81
2022-11-30T12:01:45.729Z,115.05
2022-11-30T12:04:36.153Z,114.91
2022-11-30T12:07:21.029Z,114.65
2022-11-30T12:10:00.013Z,114.70
2022-11-30T12:12:28.227Z,114.80
2022-11-30T12:14:56.691Z,114.94
2022-11-30T12:17:47.502Z,114.48
2022-11-30T12:20:40.989Z,114.56
2022-11-30T12:23:25.723Z,114.69
2022-11-30T12:26:06.992Z,114.45
2022-11-30T12:28:46.084Z,114.51
2022-11-30T12:31:18.461Z,114.46
2022-11-30T12:33:54.479Z,114.27
2022-11-30T12:36:35.133Z,114.58
2022-11-30T12:39:10.923Z,114.16
2022-11-30T12:41:54.793Z,114.92
2022-11-30T12:44:42.152Z,114.87
2022-11-30T12:47:42.094Z,115.18
2022-11-30T12:50:25.365Z,115.17
2022-11-30T12:53:14.981Z,115.01
2022-11-30T12:56:10.416Z,114.42
2022-11-30T12:58:53.110Z,114.61
2022-11-30T13:01:35.179Z,114.68
2022-11-30T13:04:16.146Z,114.50
2022-11-30T13:06:58.319Z,114.96
2022-11-30T13:09:47.208Z,114.91
2022-11-30T13:12:25.013Z,115.09
2022-11-30T13:14:58.594Z,115.10
2022-11-30T13:17:26.694Z,115.12
2022-11-30T13:19:56.260Z,114.67
2022-11-30T13:22:45.070Z,114.67
2022-11-30T13:25:59.378Z,115.28
2022-11-30T13:28:34.608Z,114.87
2022-11-30T13:31:05.391Z,114.66
2022-11-30T13:33:35.279Z,117.70
2022-11-30T13:36:07.489Z,115.86
2022-11-30T13:38:37.519Z,114.61
2022-11-30T13:41:07.264Z,113.62
2022-11-30T13:43:44.511Z,111.99
2022-11-30T13:46:12.281Z,112.44
2022-11-30T13:48:41.447Z,112.13
2022-11-30T13:51:08.685Z,112.47
2022-11-30T13:53:37.254Z,112.71
2022-11-30T13:56:07.916Z,112.87
2022-11-30T13:58:35.276Z,112.62
2022-11-30T14:01:24.522Z,112.95
2022-11-30T14:04:29.395Z,113.29
2022-11-30T14:06:56.512Z,113.96
2022-11-30T14:09:41.644Z,113.93
2022-11-30T14:12:46.563Z,113.80
2022-11-30T14:15:38.399Z,113.74
2022-11-30T14:18:08.180Z,113.70
2022-11-30T14:20:39.165Z,113.91
2022-11-30T14:23:14.648Z,113.55
2022-11-30T14:25:50.303Z,113.67
2022-11-30T14:28:40.226Z,113.71
2022-11-30T14:31:16.415Z,113.79
2022-11-30T14:33:57.637Z,113.88
2022-11-30T14:36:34.094Z,114.18
2022-11-30T14:39:01.168Z,114.01
2022-11-30T14:41:30.106Z,114.86
2022-11-30T14:44:06.295Z,114.84
2022-11-30T14:46:35.130Z,114.91
2022-11-30T14:49:24.469Z,115.07
2022-11-30T14:52:03.608Z,115.15
2022-11-30T14:54:36.255Z,115.16
2022-11-30T14:57:11.574Z,115.06
2022-11-30T14:59:54.013Z,115.41
2022-11-30T15:02:30.695Z,115.28
2022-11-30T15:04:59.065Z,115.24
2022-11-30T15:07:27.585Z,115.42
2022-11-30T15:10:05.556Z,115.38
2022-11-30T15:12:33.605Z,115.56
2022-11-30T15:15:21.566Z,115.22
2022-11-30T15:17:55.422Z,115.26
2022-11-30T15:20:27.315Z,115.22
2022-11-30T15:22:56.839Z,115.28
2022-11-30T15:25:30.944Z,115.48
2022-11-30T15:27:58.935Z,114.92
2022-11-30T15:30:25.846Z,114.72
2022-11-30T15:32:52.896Z,114.56
2022-11-30T15:35:30.744Z,114.83
2022-11-30T15:38:10.492Z,114.84
2022-11-30T15:40:37.280Z,114.61
2022-11-30T15:43:04.596Z,114.72
2022-11-30T15:45:36.154Z,114.45
2022-11-30T15:48:07.845Z,114.86
2022-11-30T15:50:39.786Z,114.89
2022-11-30T15:53:28.391Z,114.70
2022-11-30T15:55:59.004Z,114.26
2022-11-30T15:58:33.747Z,114.27
2022-11-30T16:01:06.545Z,114.38
2022-11-30T16:03:35.714Z,114.29
2022-11-30T16:06:07.201Z,114.28
2022-11-30T16:08:33.949Z,114.35
2022-11-30T16:11:04.722Z,114.23
2022-11-30T16:13:34.693Z,114.35
2022-11-30T16:16:01.685Z,114.44
2022-11-30T16:18:28.570Z,114.37
2022-11-30T16:20:59.066Z,114.86
2022-11-30T16:23:27.175Z,114.55
2022-11-30T16:25:54.390Z,114.24
2022-11-30T16:28:23.066Z,114.41
2022-11-30T16:30:50.451Z,114.69
2022-11-30T16:33:21.080Z,114.60
2022-11-30T16:36:23.256Z,114.36
2022-11-30T16:38:52.064Z,114.42
2022-11-30T16:41:22.674Z,115.06
2022-11-30T16:43:52.223Z,114.55
2022-11-30T16:46:28.021Z,114.52
2022-11-30T16:48:55.491Z,114.87
2022-11-30T16:51:29.569Z,114.61
2022-11-30T16:53:56.414Z,114.54
2022-11-30T16:56:24.062Z,114.98
2022-11-30T16:58:50.850Z,114.51
2022-11-30T17:01:39.600Z,114.82
2022-11-30T17:04:12.472Z,114.38
2022-11-30T17:06:39.179Z,114.19
2022-11-30T17:09:06.175Z,114.26
2022-11-30T17:11:34.934Z,114.37
2022-11-30T17:14:01.670Z,114.46
2022-11-30T17:16:28.470Z,114.12
2022-11-30T17:18:55.361Z,114.34
2022-11-30T17:21:33.424Z,114.51
2022-11-30T17:24:00.601Z,114.66
2022-11-30T17:26:28.369Z,114.72
2022-11-30T17:28:55.484Z,114.50
2022-11-30T17:31:22.435Z,114.52
2022-11-30T17:33:49.260Z,114.44
2022-11-30T17:36:17.126Z,114.45
2022-11-30T17:38:44.261Z,114.59
2022-11-30T17:41:19.351Z,114.59
2022-11-30T17:43:47.433Z,114.25
2022-11-30T17:46:16.491Z,114.15
2022-11-30T17:48:44.007Z,114.12
2022-11-30T17:51:11.082Z,114.18
2022-11-30T17:53:38.723Z,113.97
2022-11-30T17:56:14.298Z,114.03
2022-11-30T17:58:44.027Z,114.31
2022-11-30T18:01:21.239Z,114.70
2022-11-30T18:03:48.192Z,114.48
2022-11-30T18:06:15.342Z,114.37
2022-11-30T18:08:42.591Z,114.58
2022-11-30T18:11:14.989Z,114.10
2022-11-30T18:13:42.070Z,113.89
2022-11-30T18:16:23.524Z,113.74
2022-11-30T18:18:50.708Z,113.91
2022-11-30T18:21:20.534Z,113.99
2022-11-30T18:23:48.787Z,113.77
2022-11-30T18:26:19.211Z,113.68
2022-11-30T18:28:46.088Z,114.04
2022-11-30T18:31:13.292Z,114.03
2022-11-30T18:33:40.299Z,113.80
2022-11-30T18:36:07.885Z,114.32
2022-11-30T18:38:38.534Z,114.80
2022-11-30T18:41:06.576Z,114.54
2022-11-30T18:43:34.607Z,114.66
2022-11-30T18:46:09.414Z,114.39
2022-11-30T18:48:37.116Z,114.30
2022-11-30T18:51:15.712Z,114.47
2022-11-30T18:57:13.771Z,114.45
2022-11-30T18:59:40.561Z,114.25
2022-11-30T19:02:09.106Z,114.40
2022-11-30T19:04:36.037Z,114.42
2022-11-30T19:07:02.793Z,114.14
2022-11-30T19:09:29.482Z,114.19
2022-11-30T19:11:57.988Z,113.93
2022-11-30T19:14:24.751Z,114.20
2022-11-30T19:16:51.587Z,114.03
2022-11-30T19:19:18.439Z,114.42
2022-11-30T19:21:47.633Z,114.16
2022-11-30T19:24:15.906Z,114.40
2022-11-30T19:27:15.226Z,114.00
2022-11-30T19:29:42.987Z,114.75
2022-11-30T19:32:09.711Z,114.71
2022-11-30T19:34:36.422Z,114.61
2022-11-30T19:37:05.246Z,114.12
2022-11-30T19:39:35.053Z,114.32
2022-11-30T19:42:01.794Z,114.80
2022-11-30T19:44:28.549Z,114.66
2022-11-30T19:46:55.257Z,114.74
2022-11-30T19:49:22.016Z,114.86
2022-11-30T19:51:48.756Z,115.17
2022-11-30T19:54:15.560Z,115.32
2022-11-30T19:56:43.193Z,115.50
2022-11-30T19:59:10.220Z,115.21
2022-11-30T20:01:37.129Z,115.43
2022-11-30T20:04:05.219Z,115.28
2022-11-30T20:06:46.362Z,114.96
2022-11-30T20:09:13.189Z,114.86
2022-11-30T20:11:53.958Z,115.12
2022-11-30T20:14:22.449Z,114.85
2022-11-30T20:17:32.165Z,114.71
2022-11-30T20:19:58.979Z,115.22
2022-11-30T20:22:25.984Z,115.41
2022-11-30T20:25:19.146Z,115.24
2022-11-30T20:27:54.516Z,115.44
2022-11-30T20:30:21.241Z,115.45
2022-11-30T20:32:48.158Z,115.40
2022-11-30T20:35:43.267Z,115.60
2022-11-30T20:38:10.025Z,115.77
2022-11-30T20:40:39.721Z,115.57
2022-11-30T20:43:06.822Z,115.43
2022-11-30T20:45:33.503Z,115.40
2022-11-30T20:48:00.429Z,115.93
2022-11-30T20:50:27.102Z,115.58
2022-11-30T20:52:54.144Z,115.44
2022-11-30T20:55:21.010Z,115.38
2022-11-30T20:57:47.917Z,116.13
2022-11-30T21:00:15.480Z,115.75
2022-11-30T21:02:42.246Z,116.15
2022-11-30T21:05:09.132Z,115.62
2022-11-30T21:07:36.092Z,115.51
2022-11-30T21:10:03.412Z,115.41
2022-11-30T21:12:30.109Z,115.07
2022-11-30T21:14:56.960Z,116.75
2022-11-30T21:17:23.693Z,115.16
2022-11-30T21:19:50.368Z,115.48
2022-11-30T21:22:17.388Z,115.37
2022-11-30T21:24:44.128Z,115.15
2022-11-30T21:27:20.251Z,115.11
2022-11-30T21:29:47.225Z,114.89
2022-11-30T21:32:14.033Z,115.67
2022-11-30T21:34:40.759Z,115.92
2022-11-30T21:37:07.426Z,115.89
2022-11-30T21:39:35.605Z,115.38
2022-11-30T21:42:02.353Z,115.38
2022-11-30T21:44:30.224Z,115.46
2022-11-30T21:46:56.961Z,115.68
2022-11-30T21:49:49.901Z,115.57
2022-11-30T21:52:16.553Z,115.45
2022-11-30T21:54:43.613Z,115.05
2022-11-30T21:57:10.376Z,115.17
2022-11-30T21:59:37.199Z,115.09
2022-11-30T22:02:04.332Z,114.83
2022-11-30T22:04:36.330Z,114.68
2022-11-30T22:07:03.036Z,115.00
2022-11-30T22:09:29.740Z,114.93
2022-11-30T22:11:57.652Z,115.26
2022-11-30T22:14:24.736Z,114.89
2022-11-30T22:16:51.514Z,114.88
2022-11-30T22:19:18.294Z,114.99
2022-11-30T22:21:49.694Z,114.83
2022-11-30T22:24:16.944Z,114.72
2022-11-30T22:26:45.411Z,114.52
2022-11-30T22:29:12.130Z,114.35
2022-11-30T22:31:42.514Z,114.41
2022-11-30T22:34:10.122Z,114.25
2022-11-30T22:36:38.942Z,114.29
2022-11-30T22:39:12.059Z,114.12
2022-11-30T22:41:40.202Z,114.32
2022-11-30T22:44:07.672Z,114.38
2022-11-30T22:46:37.242Z,114.85
2022-11-30T22:49:06.669Z,115.05
2022-11-30T22:51:35.005Z,115.97
2022-11-30T22:54:02.706Z,114.95
2022-11-30T22:56:32.651Z,115.02
2022-11-30T22:59:00.848Z,115.38
2022-11-30T23:01:35.061Z,114.85
2022-11-30T23:04:13.369Z,114.87
2022-11-30T23:06:40.890Z,115.07
2022-11-30T23:09:11.348Z,114.64
2022-11-30T23:11:38.645Z,114.49
2022-11-30T23:14:08.170Z,114.58
2022-11-30T23:16:36.793Z,114.73
2022-11-30T23:19:04.454Z,114.44
2022-11-30T23:21:40.368Z,114.64
2022-11-30T23:24:10.762Z,115.06
2022-11-30T23:26:38.840Z,115.06
2022-11-30T23:29:10.779Z,114.84
2022-11-30T23:31:39.601Z,115.30
2022-11-30T23:34:09.128Z,115.54
2022-11-30T23:36:36.717Z,115.08
2022-11-30T23:39:07.441Z,114.95
2022-11-30T23:41:34.137Z,114.57
2022-11-30T23:44:01.361Z,114.60
2022-11-30T23:46:28.222Z,114.74
2022-11-30T23:48:55.811Z,114.86
2022-11-30T23:51:23.626Z,114.51
2022-11-30T23:53:50.612Z,114.72
2022-11-30T23:56:19.435Z,115.05
2022-11-30T23:58:46.432Z,114.90
